Terminal Aerodrome Forecast
Issued by NWS Greer, SC

Home | Current Version | Previous Version | Text Only | Print | Product List | Glossary On
Versions: 1 2 3 4 5 6 7 8 9 10 11 12
127
FTUS42 KGSP 290525
TAFGSP
TAF
KGSP 290525Z 2906/3006 17004KT P6SM FEW070
     FM290900 VRB03KT P6SM SCT045
     FM291400 18004KT P6SM FEW250
     FM292000 17008KT P6SM SCT100
     FM300000 18005KT P6SM BKN050 PROB30 3003/3006 4SM -SHRA OVC025=

USA.gov is the U.S. government's official web portal to all federal, state and local government web resources and services.